KHBI

Asheboro Regional Airport

Asheboro, North Carolina, USA
METAR KHBI 201635Z AUTO 22007KT 7SM -RA SCT038 SCT065 OVC110 17/16 A2993 RMK AO2 P0001 T01670162
Observed Flight Rules
Oct-20 @ 16:35 UTC (35 minutes ago) Visual Flight Rules
Wind Visibility Clouds Conditions
220° at 7 knots 7 miles
  • Scattered at 3,800' AGL
  • Scattered at 6,500' AGL
  • Overcast at 11,000' AGL
  • Light Rain
Temperatures Readings Precipitation
Current 17°C / 63°F
Dewpoint 16°C / 61°F
Humidity 94%
Altimeter 29.93" Hg
Pressure 1014 hPa
Elevation 205
Current Rain 0.01
METAR KHBI 201635Z AUTO 22007KT 7SM -RA SCT038 SCT065 OVC110 17/16 A2993 RMK AO2 P0001 T01670162
Observed Flight Rules
Oct-20 @ 16:35 UTC
(35 minutes ago)
VFR
Wind Visibility
220° at 7 knots 7 miles
Clouds
  • Scattered at 3,800' AGL
  • Scattered at 6,500' AGL
  • Overcast at 11,000' AGL
Conditions
  • Light Rain
Temperature Dewpoint
17°C / 63°F 16°C / 61°F
Humidity Altimeter Pressure
94% 29.93" Hg 1014 hPa
Current Rain
0.01